createdAt,value
2023-04-11T00:02:21.885Z,9.60
2023-04-11T00:05:07.877Z,6.97
2023-04-11T00:07:53.119Z,8.30
2023-04-11T00:10:37.935Z,7.87
2023-04-11T00:13:22.914Z,6.27
2023-04-11T00:16:09.194Z,4.97
2023-04-11T00:18:54.925Z,8.53
2023-04-11T00:21:40.269Z,7.83
2023-04-11T00:24:25.487Z,7.83
2023-04-11T00:27:10.396Z,7.53
2023-04-11T00:29:55.700Z,7.53
2023-04-11T00:32:40.680Z,7.47
2023-04-11T00:35:26.225Z,5.40
2023-04-11T00:38:11.304Z,7.67
2023-04-11T00:40:56.116Z,10.63
2023-04-11T00:43:41.250Z,4.10
2023-04-11T00:46:26.653Z,4.50
2023-04-11T00:49:12.007Z,9.43
2023-04-11T00:51:57.693Z,7.03
2023-04-11T00:54:42.953Z,4.73
2023-04-11T00:57:27.953Z,7.03
2023-04-11T01:00:14.142Z,8.70
2023-04-11T01:02:59.523Z,5.33
2023-04-11T01:05:46.667Z,4.70
2023-04-11T01:08:32.978Z,6.25
2023-04-11T01:11:19.044Z,6.50
2023-04-11T01:14:05.163Z,9.70
2023-04-11T01:16:50.622Z,5.27
2023-04-11T01:19:36.105Z,6.50
2023-04-11T01:22:22.641Z,4.53
2023-04-11T01:25:08.717Z,5.90
2023-04-11T01:27:53.892Z,4.13
2023-04-11T01:30:39.198Z,7.67
2023-04-11T01:33:24.969Z,7.77
2023-04-11T01:36:10.475Z,8.03
2023-04-11T01:38:55.940Z,5.80
2023-04-11T01:41:41.896Z,7.23
2023-04-11T01:44:28.126Z,6.30
2023-04-11T01:47:13.379Z,8.10
2023-04-11T01:49:58.564Z,12.50
2023-04-11T01:52:43.523Z,9.93
2023-04-11T01:55:28.418Z,8.83
2023-04-11T01:58:13.249Z,11.37
2023-04-11T02:00:58.110Z,9.03
2023-04-11T02:03:43.193Z,9.70
2023-04-11T02:06:28.316Z,9.53
2023-04-11T02:09:13.615Z,12.80
2023-04-11T02:11:58.421Z,9.33
2023-04-11T02:14:45.711Z,12.90
2023-04-11T02:17:30.573Z,11.60
2023-04-11T02:20:15.807Z,13.40
2023-04-11T02:23:01.211Z,10.70
2023-04-11T02:25:46.152Z,12.73
2023-04-11T02:28:31.634Z,15.20
2023-04-11T02:31:16.562Z,14.17
2023-04-11T02:34:01.954Z,13.73
2023-04-11T02:36:47.307Z,15.67
2023-04-11T02:39:32.132Z,13.67
2023-04-11T02:42:17.356Z,11.63
2023-04-11T02:45:02.694Z,15.47
2023-04-11T02:47:48.281Z,13.43
2023-04-11T02:50:33.768Z,13.13
2023-04-11T02:53:19.095Z,15.50
2023-04-11T02:56:04.689Z,15.02
2023-04-11T02:58:49.912Z,14.93
2023-04-11T03:01:35.527Z,14.02
2023-04-11T03:04:20.920Z,14.32
2023-04-11T03:07:06.278Z,12.57
2023-04-11T03:09:51.146Z,15.33
2023-04-11T03:12:36.033Z,17.33
2023-04-11T03:15:21.504Z,20.60
2023-04-11T03:18:06.344Z,19.30
2023-04-11T03:20:51.818Z,20.67
2023-04-11T03:23:38.492Z,21.43
2023-04-11T03:26:25.141Z,23.33
2023-04-11T03:29:10.554Z,23.63
2023-04-11T03:31:55.417Z,21.93
2023-04-11T03:34:40.298Z,27.73
2023-04-11T03:37:25.672Z,25.90
2023-04-11T03:40:11.206Z,23.80
2023-04-11T03:42:56.463Z,26.93
2023-04-11T03:45:41.529Z,25.50
2023-04-11T03:48:26.481Z,24.67
2023-04-11T03:51:11.973Z,25.53
2023-04-11T03:53:57.555Z,28.13
2023-04-11T03:56:42.544Z,24.47
2023-04-11T03:59:27.989Z,27.40
2023-04-11T04:02:15.196Z,25.93
2023-04-11T04:05:00.694Z,29.50
2023-04-11T04:07:46.039Z,30.77
2023-04-11T04:10:31.371Z,31.23
2023-04-11T04:13:16.229Z,27.77
2023-04-11T04:16:03.525Z,27.83
2023-04-11T04:18:48.850Z,26.77
2023-04-11T04:21:34.093Z,30.27
2023-04-11T04:24:19.232Z,32.53
2023-04-11T04:27:04.662Z,27.57
2023-04-11T04:29:53.930Z,29.40
2023-04-11T04:32:48.893Z,34.20
2023-04-11T04:35:34.834Z,28.27
2023-04-11T04:38:20.133Z,21.97
2023-04-11T04:41:05.420Z,29.80
2023-04-11T04:43:50.798Z,23.97
2023-04-11T04:46:35.782Z,23.60
2023-04-11T04:49:20.695Z,27.07
2023-04-11T04:52:05.942Z,26.00
2023-04-11T04:54:51.432Z,27.17
2023-04-11T04:57:36.176Z,29.10
2023-04-11T05:00:23.113Z,34.27
2023-04-11T05:03:08.666Z,29.63
2023-04-11T05:05:54.531Z,29.47
2023-04-11T05:08:39.982Z,32.27
2023-04-11T05:11:28.907Z,28.47
2023-04-11T05:14:13.956Z,30.67
2023-04-11T05:16:59.351Z,32.83
2023-04-11T05:19:44.747Z,32.40
2023-04-11T05:22:29.851Z,28.93
2023-04-11T05:25:14.809Z,30.73
2023-04-11T05:28:00.021Z,31.27
2023-04-11T05:30:45.402Z,30.23
2023-04-11T05:33:30.890Z,33.20
2023-04-11T05:36:16.253Z,38.37
2023-04-11T05:39:01.312Z,20.03
2023-04-11T05:41:46.264Z,20.33
2023-04-11T05:44:31.637Z,19.67
2023-04-11T05:47:16.647Z,18.30
2023-04-11T05:50:02.159Z,23.20
2023-04-11T05:52:47.382Z,17.80
2023-04-11T05:55:33.210Z,19.97
2023-04-11T05:58:18.487Z,16.10
2023-04-11T06:01:04.630Z,7.83
2023-04-11T06:03:49.934Z,7.23
2023-04-11T06:06:35.265Z,12.33
2023-04-11T06:09:21.222Z,20.67
2023-04-11T06:12:06.582Z,15.30
2023-04-11T06:14:51.946Z,9.83
2023-04-11T06:17:37.468Z,15.40
2023-04-11T06:20:23.486Z,17.13
2023-04-11T06:23:08.995Z,18.20
2023-04-11T06:25:54.418Z,17.63
2023-04-11T06:28:39.747Z,18.10
2023-04-11T06:31:25.326Z,17.10
2023-04-11T06:34:10.781Z,17.07
2023-04-11T06:36:56.185Z,20.23
2023-04-11T06:39:41.512Z,21.63
2023-04-11T06:42:26.874Z,26.57
2023-04-11T06:45:12.736Z,16.13
2023-04-11T06:47:57.767Z,24.50
2023-04-11T06:50:43.101Z,17.93
2023-04-11T06:53:28.470Z,15.13
2023-04-11T06:56:14.043Z,16.50
2023-04-11T06:58:59.358Z,17.97
2023-04-11T07:01:45.010Z,18.23
2023-04-11T07:04:30.184Z,14.17
2023-04-11T07:07:15.518Z,16.40
2023-04-11T07:10:00.979Z,18.13
2023-04-11T07:12:46.365Z,20.30
2023-04-11T07:15:31.293Z,17.23
2023-04-11T07:18:16.813Z,16.27
2023-04-11T07:21:02.219Z,13.73
2023-04-11T07:23:48.385Z,16.63
2023-04-11T07:26:33.174Z,13.47
2023-04-11T07:29:19.033Z,13.30
2023-04-11T07:32:04.136Z,18.43
2023-04-11T07:34:49.703Z,16.97
2023-04-11T07:37:35.099Z,19.40
2023-04-11T07:40:20.437Z,17.43
2023-04-11T07:43:05.795Z,17.63
2023-04-11T07:45:50.749Z,19.57
2023-04-11T07:48:36.216Z,22.63
2023-04-11T07:51:21.594Z,19.53
2023-04-11T07:54:06.981Z,23.53
2023-04-11T07:56:52.362Z,23.77
2023-04-11T07:59:37.692Z,21.43
2023-04-11T08:02:23.003Z,23.77
2023-04-11T08:05:08.645Z,17.70
2023-04-11T08:07:53.876Z,17.87
2023-04-11T08:10:39.321Z,18.83
2023-04-11T08:13:24.796Z,19.20
2023-04-11T08:16:11.876Z,17.90
2023-04-11T08:18:57.065Z,18.27
2023-04-11T08:21:43.430Z,16.10
2023-04-11T08:24:28.492Z,16.70
2023-04-11T08:27:13.793Z,19.53
2023-04-11T08:29:58.842Z,15.67
2023-04-11T08:32:44.230Z,20.00
2023-04-11T08:35:29.747Z,17.67
2023-04-11T08:38:15.227Z,14.18
2023-04-11T08:41:00.643Z,15.88
2023-04-11T08:43:45.584Z,13.32
2023-04-11T08:46:32.694Z,15.65
2023-04-11T08:49:18.202Z,14.20
2023-04-11T08:52:03.563Z,12.02
2023-04-11T08:54:51.479Z,9.98
2023-04-11T08:57:36.614Z,14.95
2023-04-11T09:00:24.129Z,12.27
2023-04-11T09:03:11.605Z,14.85
2023-04-11T09:05:57.028Z,13.27
2023-04-11T09:08:42.407Z,18.08
2023-04-11T09:11:27.524Z,14.70
2023-04-11T09:14:12.733Z,13.98
2023-04-11T09:16:59.122Z,16.33
2023-04-11T09:19:45.139Z,12.18
2023-04-11T09:22:35.624Z,13.18
2023-04-11T09:25:22.240Z,15.77
2023-04-11T09:28:10.104Z,11.40
2023-04-11T09:30:56.162Z,17.90
2023-04-11T09:33:53.126Z,10.02
2023-04-11T09:36:39.215Z,12.90
2023-04-11T09:39:24.807Z,14.43
2023-04-11T09:42:25.210Z,12.75
2023-04-11T09:45:17.485Z,10.88
2023-04-11T09:48:02.485Z,14.05
2023-04-11T09:50:49.091Z,11.93
2023-04-11T09:53:35.281Z,15.30
2023-04-11T09:56:20.689Z,18.10
2023-04-11T09:59:06.459Z,18.40
2023-04-11T10:01:53.076Z,12.18
2023-04-11T10:04:38.310Z,14.97
2023-04-11T10:07:23.701Z,18.38
2023-04-11T10:10:08.959Z,19.92
2023-04-11T10:12:54.255Z,17.13
2023-04-11T10:16:05.921Z,15.00
2023-04-11T10:18:54.035Z,10.95
2023-04-11T10:21:39.295Z,13.98
2023-04-11T10:24:24.664Z,10.45
2023-04-11T10:27:09.760Z,11.20
2023-04-11T10:29:54.654Z,13.35
2023-04-11T10:32:40.759Z,13.75
2023-04-11T10:35:25.747Z,13.52
2023-04-11T10:38:42.228Z,12.77
2023-04-11T10:41:28.615Z,12.90
2023-04-11T10:44:18.427Z,15.07
2023-04-11T10:47:16.757Z,15.57
2023-04-11T10:50:03.142Z,12.40
2023-04-11T10:52:48.617Z,18.45
2023-04-11T10:55:50.749Z,11.50
2023-04-11T10:58:40.215Z,13.80
2023-04-11T11:01:31.889Z,12.30
2023-04-11T11:04:39.148Z,14.68
2023-04-11T11:07:24.721Z,12.23
2023-04-11T11:10:10.196Z,15.77
2023-04-11T11:12:55.186Z,13.68
2023-04-11T11:15:47.536Z,13.13
2023-04-11T11:18:32.769Z,12.55
2023-04-11T11:21:27.401Z,15.48
2023-04-11T11:24:13.520Z,13.35
2023-04-11T11:26:58.994Z,17.10
2023-04-11T11:29:44.245Z,12.90
2023-04-11T11:32:29.389Z,14.80
2023-04-11T11:35:14.653Z,12.38
2023-04-11T11:38:00.202Z,14.75
2023-04-11T11:40:47.570Z,14.65
2023-04-11T11:43:35.953Z,13.13
2023-04-11T11:46:21.079Z,17.05
2023-04-11T11:49:08.296Z,15.52
2023-04-11T11:51:53.548Z,18.80
2023-04-11T11:54:46.141Z,18.05
2023-04-11T11:57:32.753Z,15.02
2023-04-11T12:00:25.552Z,14.90
2023-04-11T12:03:10.495Z,15.52
2023-04-11T12:05:55.867Z,16.38
2023-04-11T12:08:41.198Z,15.05
2023-04-11T12:11:26.128Z,14.38
2023-04-11T12:14:21.519Z,17.75
2023-04-11T12:17:08.789Z,15.23
2023-04-11T12:19:55.373Z,15.15
2023-04-11T12:22:40.469Z,15.13
2023-04-11T12:25:25.598Z,18.58
2023-04-11T12:28:10.879Z,15.10
2023-04-11T12:30:56.013Z,11.80
2023-04-11T12:33:41.487Z,9.93
2023-04-11T12:36:26.959Z,13.10
2023-04-11T12:39:12.458Z,14.35
2023-04-11T12:41:57.745Z,13.18
2023-04-11T12:44:44.232Z,10.32
2023-04-11T12:47:29.608Z,12.63
2023-04-11T12:50:14.923Z,13.90
2023-04-11T12:53:00.421Z,14.57
2023-04-11T12:55:46.180Z,11.98
2023-04-11T12:58:31.756Z,12.13
2023-04-11T13:01:17.129Z,11.65
2023-04-11T13:04:03.045Z,8.82
2023-04-11T13:06:48.406Z,10.25
2023-04-11T13:09:34.335Z,9.18
2023-04-11T13:12:19.231Z,11.63
2023-04-11T13:15:04.522Z,12.35
2023-04-11T13:17:50.188Z,9.85
2023-04-11T13:20:35.213Z,11.15
2023-04-11T13:23:20.553Z,12.35
2023-04-11T13:26:06.351Z,9.77
2023-04-11T13:28:51.768Z,8.55
2023-04-11T13:31:37.347Z,11.15
2023-04-11T13:34:22.419Z,10.02
2023-04-11T13:37:07.850Z,10.13
2023-04-11T13:39:52.976Z,11.95
2023-04-11T13:42:38.279Z,10.43
2023-04-11T13:45:23.749Z,10.98
2023-04-11T13:48:09.040Z,8.95
2023-04-11T13:50:54.323Z,9.68
2023-04-11T13:53:39.898Z,7.47
2023-04-11T13:56:25.433Z,9.13
2023-04-11T13:59:10.782Z,7.13
2023-04-11T14:01:56.135Z,9.95
2023-04-11T14:04:41.586Z,9.23
2023-04-11T14:07:26.911Z,8.90
2023-04-11T14:10:12.279Z,7.82
2023-04-11T14:12:57.561Z,10.60
2023-04-11T14:15:42.880Z,9.15
2023-04-11T14:18:28.227Z,12.20
2023-04-11T14:21:13.449Z,10.98
2023-04-11T14:23:58.797Z,10.02
2023-04-11T14:26:44.082Z,10.02
2023-04-11T14:29:29.566Z,7.45
2023-04-11T14:32:14.870Z,10.65
2023-04-11T14:35:01.899Z,6.18
2023-04-11T14:37:47.118Z,9.52
2023-04-11T14:40:32.506Z,8.40
2023-04-11T14:43:17.876Z,7.50
2023-04-11T14:46:03.441Z,7.72
2023-04-11T14:48:48.759Z,9.63
2023-04-11T14:51:35.053Z,11.68
2023-04-11T14:54:23.000Z,6.15
2023-04-11T14:57:08.283Z,6.85
2023-04-11T14:59:53.928Z,7.38
2023-04-11T15:02:39.349Z,9.02
2023-04-11T15:05:24.606Z,7.97
2023-04-11T15:08:09.889Z,8.13
2023-04-11T15:10:55.219Z,7.22
2023-04-11T15:13:40.583Z,6.60
2023-04-11T15:16:25.958Z,12.60
2023-04-11T15:19:11.306Z,7.35
2023-04-11T15:21:56.837Z,6.68
2023-04-11T15:24:42.110Z,7.65
2023-04-11T15:27:27.489Z,8.27
2023-04-11T15:30:12.815Z,7.95
2023-04-11T15:32:58.166Z,10.23
2023-04-11T15:35:44.578Z,6.55
2023-04-11T15:38:29.620Z,8.20
2023-04-11T15:41:14.997Z,11.48
2023-04-11T15:44:00.111Z,7.80
2023-04-11T15:46:46.935Z,9.98
2023-04-11T15:49:34.016Z,8.38
2023-04-11T15:52:19.330Z,7.20
2023-04-11T15:55:05.305Z,10.30
2023-04-11T15:57:51.566Z,13.00
2023-04-11T16:00:38.045Z,11.18
2023-04-11T16:03:23.510Z,9.27
2023-04-11T16:06:08.739Z,9.73
2023-04-11T16:08:54.299Z,10.10
2023-04-11T16:11:39.744Z,11.75
2023-04-11T16:14:24.849Z,8.80
2023-04-11T16:17:10.078Z,9.73
2023-04-11T16:19:55.492Z,9.35
2023-04-11T16:22:40.956Z,7.78
2023-04-11T16:25:26.505Z,7.30
2023-04-11T16:28:11.700Z,7.80
2023-04-11T16:30:58.386Z,9.88
2023-04-11T16:33:43.404Z,9.63
2023-04-11T16:36:28.840Z,11.35
2023-04-11T16:39:14.204Z,10.82
2023-04-11T16:41:59.081Z,6.70
2023-04-11T16:44:44.597Z,7.25
2023-04-11T16:47:30.125Z,10.38
2023-04-11T16:50:15.470Z,6.28
2023-04-11T16:53:00.735Z,10.55
2023-04-11T16:55:46.292Z,8.90
2023-04-11T16:58:31.806Z,6.68
2023-04-11T17:01:17.193Z,10.55
2023-04-11T17:04:02.524Z,7.65
2023-04-11T17:06:47.616Z,9.98
2023-04-11T17:09:33.018Z,12.95
2023-04-11T17:12:18.283Z,11.27
2023-04-11T17:15:03.756Z,10.80
2023-04-11T17:17:49.034Z,6.63
2023-04-11T17:20:33.927Z,10.40
2023-04-11T17:23:23.920Z,13.10
2023-04-11T17:26:14.376Z,11.45
2023-04-11T17:28:59.654Z,12.02
2023-04-11T17:31:46.312Z,8.32
2023-04-11T17:34:31.547Z,9.27
2023-04-11T17:37:16.791Z,11.07
2023-04-11T17:40:02.285Z,8.85
2023-04-11T17:42:47.801Z,9.95
2023-04-11T17:45:33.204Z,8.45
2023-04-11T17:48:18.585Z,8.13
2023-04-11T17:51:04.778Z,12.90
2023-04-11T17:53:50.116Z,11.40
2023-04-11T17:56:35.458Z,11.65
2023-04-11T17:59:20.656Z,12.15
2023-04-11T18:02:06.845Z,12.40
2023-04-11T18:04:52.415Z,12.73
2023-04-11T18:07:37.870Z,10.85
2023-04-11T18:10:24.105Z,8.95
2023-04-11T18:13:09.344Z,13.65
2023-04-11T18:15:54.874Z,14.45
2023-04-11T18:18:39.909Z,12.13
2023-04-11T18:21:25.252Z,8.63
2023-04-11T18:24:10.637Z,11.40
2023-04-11T18:26:56.068Z,11.88
2023-04-11T18:29:41.606Z,13.82
2023-04-11T18:32:32.350Z,14.27
2023-04-11T18:35:21.073Z,10.85
2023-04-11T18:38:06.128Z,12.88
2023-04-11T18:40:55.307Z,13.55
2023-04-11T18:43:41.614Z,14.40
2023-04-11T18:46:27.306Z,17.52
2023-04-11T18:49:14.061Z,16.35
2023-04-11T18:52:02.072Z,12.40
2023-04-11T18:54:47.509Z,11.90
2023-04-11T18:57:34.427Z,14.35
2023-04-11T19:00:20.555Z,13.57
2023-04-11T19:03:06.155Z,16.52
2023-04-11T19:05:51.864Z,13.10
2023-04-11T19:08:37.049Z,14.77
2023-04-11T19:11:22.235Z,13.05
2023-04-11T19:14:08.829Z,17.20
2023-04-11T19:16:54.189Z,15.88
2023-04-11T19:19:39.920Z,17.02
2023-04-11T19:22:25.223Z,17.77
2023-04-11T19:25:11.671Z,16.73
2023-04-11T19:27:56.930Z,15.90
2023-04-11T19:30:42.297Z,16.33
2023-04-11T19:33:27.679Z,15.85
2023-04-11T19:36:13.094Z,15.27
2023-04-11T19:38:58.505Z,14.95
2023-04-11T19:41:44.864Z,17.25
2023-04-11T19:44:30.238Z,16.90
2023-04-11T19:47:15.746Z,14.67
2023-04-11T19:50:01.397Z,17.73
2023-04-11T19:52:46.484Z,22.77
2023-04-11T19:55:31.734Z,19.65
2023-04-11T19:58:17.662Z,23.03
2023-04-11T20:01:03.978Z,19.73
2023-04-11T20:03:49.153Z,21.43
2023-04-11T20:06:34.570Z,18.80
2023-04-11T20:09:19.935Z,17.80
2023-04-11T20:12:05.428Z,18.53
2023-04-11T20:14:50.873Z,19.47
2023-04-11T20:17:36.320Z,18.60
2023-04-11T20:20:21.953Z,20.27
2023-04-11T20:23:07.235Z,17.03
2023-04-11T20:25:52.548Z,17.90
2023-04-11T20:28:37.934Z,19.70
2023-04-11T20:31:24.043Z,16.13
2023-04-11T20:34:09.244Z,17.90
2023-04-11T20:36:55.017Z,15.93
2023-04-11T20:39:40.325Z,21.37
2023-04-11T20:42:26.486Z,20.27
2023-04-11T20:45:16.681Z,16.07
2023-04-11T20:48:02.030Z,17.57
2023-04-11T20:50:47.417Z,20.90
2023-04-11T20:53:32.800Z,15.77
2023-04-11T20:56:18.197Z,17.53
2023-04-11T20:59:03.910Z,17.30
2023-04-11T21:01:49.203Z,19.07
2023-04-11T21:04:34.522Z,17.67
2023-04-11T21:07:20.651Z,18.43
2023-04-11T21:10:06.533Z,17.53
2023-04-11T21:12:51.961Z,16.07
2023-04-11T21:15:36.883Z,15.33
2023-04-11T21:18:22.324Z,15.07
2023-04-11T21:21:11.221Z,17.93
2023-04-11T21:23:56.980Z,15.77
2023-04-11T21:26:42.471Z,17.57
2023-04-11T21:29:28.815Z,16.40
2023-04-11T21:32:14.291Z,20.17
2023-04-11T21:34:59.252Z,18.90
2023-04-11T21:37:45.989Z,17.27
2023-04-11T21:40:32.942Z,14.70
2023-04-11T21:43:18.393Z,13.97
2023-04-11T21:46:03.747Z,20.07
2023-04-11T21:48:50.866Z,20.70
2023-04-11T21:51:36.690Z,17.33
2023-04-11T21:54:22.263Z,18.70
2023-04-11T21:57:07.407Z,19.03
2023-04-11T21:59:52.834Z,18.63
2023-04-11T22:02:38.623Z,17.37
2023-04-11T22:05:24.172Z,14.93
2023-04-11T22:08:14.834Z,20.83
2023-04-11T22:11:00.450Z,17.73
2023-04-11T22:13:46.286Z,18.60
2023-04-11T22:16:31.906Z,18.83
2023-04-11T22:19:18.214Z,15.23
2023-04-11T22:22:04.546Z,17.23
2023-04-11T22:24:49.765Z,17.20
2023-04-11T22:27:35.114Z,20.87
2023-04-11T22:30:20.502Z,18.33
2023-04-11T22:33:05.978Z,15.87
2023-04-11T22:35:51.425Z,18.83
2023-04-11T22:38:36.909Z,19.10
2023-04-11T22:41:22.246Z,16.87
2023-04-11T22:44:07.838Z,15.43
2023-04-11T22:47:03.566Z,15.47
2023-04-11T22:49:48.726Z,16.30
2023-04-11T22:52:33.973Z,18.40
2023-04-11T22:55:19.367Z,20.40
2023-04-11T22:58:04.825Z,15.73
2023-04-11T23:00:50.170Z,19.07
2023-04-11T23:03:35.654Z,19.10
2023-04-11T23:06:20.915Z,17.10
2023-04-11T23:09:06.368Z,19.30
2023-04-11T23:11:52.378Z,20.97
2023-04-11T23:14:37.599Z,16.80
2023-04-11T23:17:22.531Z,16.17
2023-04-11T23:20:08.476Z,19.50
2023-04-11T23:22:53.388Z,15.53
2023-04-11T23:25:39.098Z,18.73
2023-04-11T23:28:23.897Z,14.87
2023-04-11T23:31:08.722Z,16.73
2023-04-11T23:33:53.947Z,15.80
2023-04-11T23:36:38.921Z,16.80
2023-04-11T23:39:23.768Z,17.70
2023-04-11T23:42:09.400Z,16.00
2023-04-11T23:44:54.630Z,15.10
2023-04-11T23:47:40.389Z,18.00
2023-04-11T23:50:25.417Z,16.53
2023-04-11T23:53:10.865Z,16.23
2023-04-11T23:55:56.395Z,19.50
2023-04-11T23:58:41.733Z,15.40
